sensor_id;sensor_type;location;lat;lon;timestamp;temperature;humidity
20929;DHT22;21895;47.072;15.132;2023-04-25T00:00:12;10.00;99.90
20929;DHT22;21895;47.072;15.132;2023-04-25T00:02:40;9.80;99.90
20929;DHT22;21895;47.072;15.132;2023-04-25T00:05:07;9.80;99.90
20929;DHT22;21895;47.072;15.132;2023-04-25T00:07:35;9.70;99.90
20929;DHT22;21895;47.072;15.132;2023-04-25T00:10:01;9.60;99.90
20929;DHT22;21895;47.072;15.132;2023-04-25T00:12:28;9.60;99.90
20929;DHT22;21895;47.072;15.132;2023-04-25T00:14:55;9.60;99.90
20929;DHT22;21895;47.072;15.132;2023-04-25T00:17:23;9.60;99.90
20929;DHT22;21895;47.072;15.132;2023-04-25T00:19:52;9.50;99.90
20929;DHT22;21895;47.072;15.132;2023-04-25T00:22:19;9.40;99.90
20929;DHT22;21895;47.072;15.132;2023-04-25T00:24:46;9.40;99.90
20929;DHT22;21895;47.072;15.132;2023-04-25T00:27:12;9.40;99.90
20929;DHT22;21895;47.072;15.132;2023-04-25T00:29:39;9.30;99.90
20929;DHT22;21895;47.072;15.132;2023-04-25T00:32:05;9.20;99.90
20929;DHT22;21895;47.072;15.132;2023-04-25T00:34:32;9.30;99.90
20929;DHT22;21895;47.072;15.132;2023-04-25T00:36:59;9.20;99.90
20929;DHT22;21895;47.072;15.132;2023-04-25T00:39:28;9.10;99.90
20929;DHT22;21895;47.072;15.132;2023-04-25T00:41:54;9.00;99.90
20929;DHT22;21895;47.072;15.132;2023-04-25T00:44:21;9.00;99.90
20929;DHT22;21895;47.072;15.132;2023-04-25T00:46:49;9.00;99.90
20929;DHT22;21895;47.072;15.132;2023-04-25T00:49:16;8.80;99.90
20929;DHT22;21895;47.072;15.132;2023-04-25T00:51:43;8.70;99.90
20929;DHT22;21895;47.072;15.132;2023-04-25T00:54:12;8.60;99.90
20929;DHT22;21895;47.072;15.132;2023-04-25T00:56:39;8.50;99.90
20929;DHT22;21895;47.072;15.132;2023-04-25T00:59:06;8.40;99.90
20929;DHT22;21895;47.072;15.132;2023-04-25T01:01:34;8.30;99.90
20929;DHT22;21895;47.072;15.132;2023-04-25T01:04:01;8.30;99.90
20929;DHT22;21895;47.072;15.132;2023-04-25T01:06:28;8.30;99.90
20929;DHT22;21895;47.072;15.132;2023-04-25T01:08:54;8.30;99.90
20929;DHT22;21895;47.072;15.132;2023-04-25T01:11:21;8.20;99.90
20929;DHT22;21895;47.072;15.132;2023-04-25T01:13:48;8.20;99.90
20929;DHT22;21895;47.072;15.132;2023-04-25T01:16:15;8.20;99.90
20929;DHT22;21895;47.072;15.132;2023-04-25T01:18:42;8.10;99.90
20929;DHT22;21895;47.072;15.132;2023-04-25T01:21:11;8.10;99.90
20929;DHT22;21895;47.072;15.132;2023-04-25T01:23:40;7.80;99.90
20929;DHT22;21895;47.072;15.132;2023-04-25T01:26:11;7.80;99.90
20929;DHT22;21895;47.072;15.132;2023-04-25T01:28:39;7.70;99.90
20929;DHT22;21895;47.072;15.132;2023-04-25T01:31:12;7.60;99.90
20929;DHT22;21895;47.072;15.132;2023-04-25T01:33:40;7.60;99.90
20929;DHT22;21895;47.072;15.132;2023-04-25T01:36:06;7.70;99.90
20929;DHT22;21895;47.072;15.132;2023-04-25T01:38:33;7.60;99.90
20929;DHT22;21895;47.072;15.132;2023-04-25T01:41:01;7.50;99.90
20929;DHT22;21895;47.072;15.132;2023-04-25T01:43:27;7.40;99.90
20929;DHT22;21895;47.072;15.132;2023-04-25T01:45:54;7.40;99.90
20929;DHT22;21895;47.072;15.132;2023-04-25T01:48:23;7.50;99.90
20929;DHT22;21895;47.072;15.132;2023-04-25T01:50:50;7.30;99.90
20929;DHT22;21895;47.072;15.132;2023-04-25T01:53:16;7.40;99.90
20929;DHT22;21895;47.072;15.132;2023-04-25T01:55:43;7.40;99.90
20929;DHT22;21895;47.072;15.132;2023-04-25T01:58:09;7.40;99.90
20929;DHT22;21895;47.072;15.132;2023-04-25T02:00:38;7.50;99.90
20929;DHT22;21895;47.072;15.132;2023-04-25T02:03:07;7.30;99.90
20929;DHT22;21895;47.072;15.132;2023-04-25T02:05:37;7.20;99.90
20929;DHT22;21895;47.072;15.132;2023-04-25T02:08:06;7.20;99.90
20929;DHT22;21895;47.072;15.132;2023-04-25T02:10:34;7.20;99.90
20929;DHT22;21895;47.072;15.132;2023-04-25T02:13:01;7.20;99.90
20929;DHT22;21895;47.072;15.132;2023-04-25T02:15:28;7.10;99.90
20929;DHT22;21895;47.072;15.132;2023-04-25T02:17:55;7.00;99.90
20929;DHT22;21895;47.072;15.132;2023-04-25T02:20:22;6.90;99.90
20929;DHT22;21895;47.072;15.132;2023-04-25T02:22:50;6.90;99.90
20929;DHT22;21895;47.072;15.132;2023-04-25T02:25:18;6.90;99.90
20929;DHT22;21895;47.072;15.132;2023-04-25T02:27:46;6.90;99.90
20929;DHT22;21895;47.072;15.132;2023-04-25T02:30:14;6.90;99.90
20929;DHT22;21895;47.072;15.132;2023-04-25T02:32:41;6.80;99.90
20929;DHT22;21895;47.072;15.132;2023-04-25T02:35:08;6.70;99.90
20929;DHT22;21895;47.072;15.132;2023-04-25T02:37:36;6.70;99.90
20929;DHT22;21895;47.072;15.132;2023-04-25T02:40:04;6.60;99.90
20929;DHT22;21895;47.072;15.132;2023-04-25T02:42:31;6.70;99.90
20929;DHT22;21895;47.072;15.132;2023-04-25T02:44:58;6.60;99.90
20929;DHT22;21895;47.072;15.132;2023-04-25T02:47:25;6.40;99.90
20929;DHT22;21895;47.072;15.132;2023-04-25T02:49:51;6.40;99.90
20929;DHT22;21895;47.072;15.132;2023-04-25T02:52:18;6.40;99.90
20929;DHT22;21895;47.072;15.132;2023-04-25T02:54:44;6.30;99.90
20929;DHT22;21895;47.072;15.132;2023-04-25T02:57:11;6.20;99.90
20929;DHT22;21895;47.072;15.132;2023-04-25T02:59:37;6.20;99.90
20929;DHT22;21895;47.072;15.132;2023-04-25T03:02:04;6.20;99.90
20929;DHT22;21895;47.072;15.132;2023-04-25T03:04:30;6.10;99.90
20929;DHT22;21895;47.072;15.132;2023-04-25T03:06:57;6.00;99.90
20929;DHT22;21895;47.072;15.132;2023-04-25T03:09:23;6.00;99.90
20929;DHT22;21895;47.072;15.132;2023-04-25T03:11:50;6.10;99.90
20929;DHT22;21895;47.072;15.132;2023-04-25T03:14:17;6.10;99.90
20929;DHT22;21895;47.072;15.132;2023-04-25T03:16:43;5.90;99.90
20929;DHT22;21895;47.072;15.132;2023-04-25T03:19:11;5.80;99.90
20929;DHT22;21895;47.072;15.132;2023-04-25T03:21:37;5.70;99.90
20929;DHT22;21895;47.072;15.132;2023-04-25T03:24:04;5.80;99.90
20929;DHT22;21895;47.072;15.132;2023-04-25T03:26:31;5.70;99.90
20929;DHT22;21895;47.072;15.132;2023-04-25T03:28:57;5.70;99.90
20929;DHT22;21895;47.072;15.132;2023-04-25T03:31:24;5.70;99.90
20929;DHT22;21895;47.072;15.132;2023-04-25T03:33:50;5.70;99.90
20929;DHT22;21895;47.072;15.132;2023-04-25T03:36:17;5.70;99.90
20929;DHT22;21895;47.072;15.132;2023-04-25T03:38:44;5.50;99.90
20929;DHT22;21895;47.072;15.132;2023-04-25T03:41:10;5.50;99.90
20929;DHT22;21895;47.072;15.132;2023-04-25T03:43:37;5.50;99.90
20929;DHT22;21895;47.072;15.132;2023-04-25T03:46:03;5.50;99.90
20929;DHT22;21895;47.072;15.132;2023-04-25T03:48:30;5.50;99.90
20929;DHT22;21895;47.072;15.132;2023-04-25T03:50:56;5.50;99.90
20929;DHT22;21895;47.072;15.132;2023-04-25T03:53:23;5.50;99.90
20929;DHT22;21895;47.072;15.132;2023-04-25T03:55:50;5.50;99.90
20929;DHT22;21895;47.072;15.132;2023-04-25T03:58:16;5.50;99.90
20929;DHT22;21895;47.072;15.132;2023-04-25T04:00:43;5.50;99.90
20929;DHT22;21895;47.072;15.132;2023-04-25T04:03:09;5.60;99.90
20929;DHT22;21895;47.072;15.132;2023-04-25T04:05:37;5.40;99.90
20929;DHT22;21895;47.072;15.132;2023-04-25T04:08:06;5.30;99.90
20929;DHT22;21895;47.072;15.132;2023-04-25T04:10:33;5.40;99.90
20929;DHT22;21895;47.072;15.132;2023-04-25T04:12:59;5.40;99.90
20929;DHT22;21895;47.072;15.132;2023-04-25T04:15:26;5.50;99.90
20929;DHT22;21895;47.072;15.132;2023-04-25T04:17:52;5.50;99.90
20929;DHT22;21895;47.072;15.132;2023-04-25T04:20:20;5.50;99.90
20929;DHT22;21895;47.072;15.132;2023-04-25T04:22:46;5.50;99.90
20929;DHT22;21895;47.072;15.132;2023-04-25T04:25:13;5.50;99.90
20929;DHT22;21895;47.072;15.132;2023-04-25T04:27:39;5.50;99.90
20929;DHT22;21895;47.072;15.132;2023-04-25T04:30:07;5.50;99.90
20929;DHT22;21895;47.072;15.132;2023-04-25T04:32:34;5.50;99.90
20929;DHT22;21895;47.072;15.132;2023-04-25T04:35:02;5.60;99.90
20929;DHT22;21895;47.072;15.132;2023-04-25T04:37:30;5.50;99.90
20929;DHT22;21895;47.072;15.132;2023-04-25T04:39:56;5.50;99.90
20929;DHT22;21895;47.072;15.132;2023-04-25T04:42:23;5.60;99.90
20929;DHT22;21895;47.072;15.132;2023-04-25T04:44:51;5.60;99.90
20929;DHT22;21895;47.072;15.132;2023-04-25T04:47:18;5.50;99.90
20929;DHT22;21895;47.072;15.132;2023-04-25T04:49:46;5.70;99.90
20929;DHT22;21895;47.072;15.132;2023-04-25T04:52:12;5.80;99.90
20929;DHT22;21895;47.072;15.132;2023-04-25T04:54:39;5.80;99.90
20929;DHT22;21895;47.072;15.132;2023-04-25T04:57:05;5.90;99.90
20929;DHT22;21895;47.072;15.132;2023-04-25T04:59:32;5.80;99.90
20929;DHT22;21895;47.072;15.132;2023-04-25T05:01:58;6.10;99.90
20929;DHT22;21895;47.072;15.132;2023-04-25T05:04:25;6.10;99.90
20929;DHT22;21895;47.072;15.132;2023-04-25T05:06:51;6.20;99.90
20929;DHT22;21895;47.072;15.132;2023-04-25T05:09:18;6.20;99.90
20929;DHT22;21895;47.072;15.132;2023-04-25T05:11:45;6.30;99.90
20929;DHT22;21895;47.072;15.132;2023-04-25T05:14:11;6.60;99.90
20929;DHT22;21895;47.072;15.132;2023-04-25T05:16:38;6.40;99.90
20929;DHT22;21895;47.072;15.132;2023-04-25T05:19:04;6.40;99.90
20929;DHT22;21895;47.072;15.132;2023-04-25T05:21:31;6.60;99.90
20929;DHT22;21895;47.072;15.132;2023-04-25T05:23:57;6.90;99.90
20929;DHT22;21895;47.072;15.132;2023-04-25T05:26:24;7.00;99.90
20929;DHT22;21895;47.072;15.132;2023-04-25T05:28:50;7.20;99.90
20929;DHT22;21895;47.072;15.132;2023-04-25T05:31:17;7.50;99.90
20929;DHT22;21895;47.072;15.132;2023-04-25T05:33:43;7.70;99.90
20929;DHT22;21895;47.072;15.132;2023-04-25T05:36:10;8.00;99.90
20929;DHT22;21895;47.072;15.132;2023-04-25T05:38:36;8.30;99.90
20929;DHT22;21895;47.072;15.132;2023-04-25T05:41:03;8.60;99.90
20929;DHT22;21895;47.072;15.132;2023-04-25T05:43:29;8.70;99.90
20929;DHT22;21895;47.072;15.132;2023-04-25T05:45:56;9.10;99.90
20929;DHT22;21895;47.072;15.132;2023-04-25T05:48:23;9.30;99.90
20929;DHT22;21895;47.072;15.132;2023-04-25T05:50:49;9.20;99.90
20929;DHT22;21895;47.072;15.132;2023-04-25T05:53:18;9.30;99.90
20929;DHT22;21895;47.072;15.132;2023-04-25T05:55:45;9.60;99.90
20929;DHT22;21895;47.072;15.132;2023-04-25T05:58:12;9.80;99.90
20929;DHT22;21895;47.072;15.132;2023-04-25T06:00:39;9.80;99.90
20929;DHT22;21895;47.072;15.132;2023-04-25T06:03:07;9.80;99.90
20929;DHT22;21895;47.072;15.132;2023-04-25T06:05:36;10.00;99.90
20929;DHT22;21895;47.072;15.132;2023-04-25T06:08:02;10.10;99.90
20929;DHT22;21895;47.072;15.132;2023-04-25T06:10:29;10.40;99.90
20929;DHT22;21895;47.072;15.132;2023-04-25T06:12:55;10.60;99.90
20929;DHT22;21895;47.072;15.132;2023-04-25T06:15:22;10.80;99.90
20929;DHT22;21895;47.072;15.132;2023-04-25T06:17:59;10.90;99.90
20929;DHT22;21895;47.072;15.132;2023-04-25T06:20:26;10.90;99.90
20929;DHT22;21895;47.072;15.132;2023-04-25T06:22:52;11.20;99.90
20929;DHT22;21895;47.072;15.132;2023-04-25T06:25:19;11.70;99.90
20929;DHT22;21895;47.072;15.132;2023-04-25T06:27:46;12.10;99.70
20929;DHT22;21895;47.072;15.132;2023-04-25T06:30:12;12.40;99.90
20929;DHT22;21895;47.072;15.132;2023-04-25T06:32:39;12.50;99.90
20929;DHT22;21895;47.072;15.132;2023-04-25T06:35:06;12.50;99.90
20929;DHT22;21895;47.072;15.132;2023-04-25T06:37:33;12.30;99.80
20929;DHT22;21895;47.072;15.132;2023-04-25T06:39:59;12.40;97.70
20929;DHT22;21895;47.072;15.132;2023-04-25T06:42:26;12.60;98.10
20929;DHT22;21895;47.072;15.132;2023-04-25T06:44:52;12.90;97.90
20929;DHT22;21895;47.072;15.132;2023-04-25T06:47:19;13.10;97.70
20929;DHT22;21895;47.072;15.132;2023-04-25T06:49:45;13.10;96.10
20929;DHT22;21895;47.072;15.132;2023-04-25T06:52:12;13.30;94.80
20929;DHT22;21895;47.072;15.132;2023-04-25T06:54:39;13.50;95.80
20929;DHT22;21895;47.072;15.132;2023-04-25T06:57:05;13.70;96.80
20929;DHT22;21895;47.072;15.132;2023-04-25T06:59:32;13.90;96.30
20929;DHT22;21895;47.072;15.132;2023-04-25T07:01:58;14.10;96.20
20929;DHT22;21895;47.072;15.132;2023-04-25T07:04:25;14.30;96.40
20929;DHT22;21895;47.072;15.132;2023-04-25T07:06:52;14.80;94.00
20929;DHT22;21895;47.072;15.132;2023-04-25T07:09:19;15.10;92.00
20929;DHT22;21895;47.072;15.132;2023-04-25T07:11:45;15.20;92.40
20929;DHT22;21895;47.072;15.132;2023-04-25T07:14:15;15.50;91.10
20929;DHT22;21895;47.072;15.132;2023-04-25T07:16:45;15.70;91.30
20929;DHT22;21895;47.072;15.132;2023-04-25T07:19:11;16.10;88.90
20929;DHT22;21895;47.072;15.132;2023-04-25T07:21:38;16.40;87.70
20929;DHT22;21895;47.072;15.132;2023-04-25T07:24:05;16.60;89.00
20929;DHT22;21895;47.072;15.132;2023-04-25T07:26:32;16.50;84.60
20929;DHT22;21895;47.072;15.132;2023-04-25T07:28:59;16.30;86.20
20929;DHT22;21895;47.072;15.132;2023-04-25T07:31:25;16.10;82.60
20929;DHT22;21895;47.072;15.132;2023-04-25T07:33:53;15.90;87.80
20929;DHT22;21895;47.072;15.132;2023-04-25T07:36:19;15.80;85.40
20929;DHT22;21895;47.072;15.132;2023-04-25T07:38:46;15.70;90.50
20929;DHT22;21895;47.072;15.132;2023-04-25T07:41:13;15.60;86.70
20929;DHT22;21895;47.072;15.132;2023-04-25T07:43:40;15.40;87.70
20929;DHT22;21895;47.072;15.132;2023-04-25T07:46:06;15.30;85.70
20929;DHT22;21895;47.072;15.132;2023-04-25T07:48:33;15.60;83.50
20929;DHT22;21895;47.072;15.132;2023-04-25T07:50:59;15.80;77.20
20929;DHT22;21895;47.072;15.132;2023-04-25T07:53:26;16.20;74.30
20929;DHT22;21895;47.072;15.132;2023-04-25T07:55:52;16.30;72.00
20929;DHT22;21895;47.072;15.132;2023-04-25T07:58:19;16.40;73.60
20929;DHT22;21895;47.072;15.132;2023-04-25T08:00:48;16.50;69.40
20929;DHT22;21895;47.072;15.132;2023-04-25T08:03:14;16.60;72.50
20929;DHT22;21895;47.072;15.132;2023-04-25T08:05:41;16.70;74.20
20929;DHT22;21895;47.072;15.132;2023-04-25T08:08:08;17.10;71.20
20929;DHT22;21895;47.072;15.132;2023-04-25T08:10:35;17.10;64.10
20929;DHT22;21895;47.072;15.132;2023-04-25T08:13:01;17.00;65.40
20929;DHT22;21895;47.072;15.132;2023-04-25T08:15:28;16.90;68.20
20929;DHT22;21895;47.072;15.132;2023-04-25T08:17:54;16.70;68.90
20929;DHT22;21895;47.072;15.132;2023-04-25T08:20:21;16.80;67.40
20929;DHT22;21895;47.072;15.132;2023-04-25T08:22:48;16.70;66.80
20929;DHT22;21895;47.072;15.132;2023-04-25T08:25:14;16.80;68.20
20929;DHT22;21895;47.072;15.132;2023-04-25T08:27:41;16.80;67.10
20929;DHT22;21895;47.072;15.132;2023-04-25T08:30:08;16.80;69.40
20929;DHT22;21895;47.072;15.132;2023-04-25T08:32:35;16.60;69.10
20929;DHT22;21895;47.072;15.132;2023-04-25T08:35:04;16.40;66.50
20929;DHT22;21895;47.072;15.132;2023-04-25T08:37:31;16.20;68.50
20929;DHT22;21895;47.072;15.132;2023-04-25T08:39:57;16.10;68.20
20929;DHT22;21895;47.072;15.132;2023-04-25T08:42:24;16.20;71.30
20929;DHT22;21895;47.072;15.132;2023-04-25T08:44:53;16.20;68.80
20929;DHT22;21895;47.072;15.132;2023-04-25T08:47:22;16.20;69.20
20929;DHT22;21895;47.072;15.132;2023-04-25T08:49:53;16.10;68.00
20929;DHT22;21895;47.072;15.132;2023-04-25T08:52:24;16.00;68.50
20929;DHT22;21895;47.072;15.132;2023-04-25T08:54:58;15.90;70.50
20929;DHT22;21895;47.072;15.132;2023-04-25T08:57:27;15.80;70.60
20929;DHT22;21895;47.072;15.132;2023-04-25T08:59:57;15.70;70.00
20929;DHT22;21895;47.072;15.132;2023-04-25T09:02:24;15.70;70.00
20929;DHT22;21895;47.072;15.132;2023-04-25T09:04:51;15.70;69.10
20929;DHT22;21895;47.072;15.132;2023-04-25T09:07:20;15.80;71.70
20929;DHT22;21895;47.072;15.132;2023-04-25T09:09:47;15.80;70.10
20929;DHT22;21895;47.072;15.132;2023-04-25T09:12:14;15.70;66.70
20929;DHT22;21895;47.072;15.132;2023-04-25T09:14:40;15.60;69.60
20929;DHT22;21895;47.072;15.132;2023-04-25T09:17:08;15.60;69.80
20929;DHT22;21895;47.072;15.132;2023-04-25T09:19:36;15.70;70.70
20929;DHT22;21895;47.072;15.132;2023-04-25T09:22:08;15.90;69.10
20929;DHT22;21895;47.072;15.132;2023-04-25T09:24:42;16.20;69.60
20929;DHT22;21895;47.072;15.132;2023-04-25T09:27:19;16.20;67.00
20929;DHT22;21895;47.072;15.132;2023-04-25T09:29:57;16.10;67.90
20929;DHT22;21895;47.072;15.132;2023-04-25T09:32:27;16.30;71.60
20929;DHT22;21895;47.072;15.132;2023-04-25T09:34:56;16.50;69.40
20929;DHT22;21895;47.072;15.132;2023-04-25T09:37:26;16.60;64.70
20929;DHT22;21895;47.072;15.132;2023-04-25T09:39:58;16.70;67.20
20929;DHT22;21895;47.072;15.132;2023-04-25T09:42:29;16.70;68.90
20929;DHT22;21895;47.072;15.132;2023-04-25T09:44:58;16.50;67.00
20929;DHT22;21895;47.072;15.132;2023-04-25T09:47:25;16.50;69.10
20929;DHT22;21895;47.072;15.132;2023-04-25T09:49:53;16.60;65.60
20929;DHT22;21895;47.072;15.132;2023-04-25T09:52:24;16.70;67.70
20929;DHT22;21895;47.072;15.132;2023-04-25T09:54:52;17.00;69.60
20929;DHT22;21895;47.072;15.132;2023-04-25T09:57:20;17.30;66.90
20929;DHT22;21895;47.072;15.132;2023-04-25T09:59:50;17.60;69.20
20929;DHT22;21895;47.072;15.132;2023-04-25T10:02:25;17.90;69.30
20929;DHT22;21895;47.072;15.132;2023-04-25T10:04:55;18.20;64.00
20929;DHT22;21895;47.072;15.132;2023-04-25T10:07:26;18.30;65.60
20929;DHT22;21895;47.072;15.132;2023-04-25T10:10:03;18.30;67.90
20929;DHT22;21895;47.072;15.132;2023-04-25T10:12:33;18.30;65.50
20929;DHT22;21895;47.072;15.132;2023-04-25T10:15:00;18.30;64.80
20929;DHT22;21895;47.072;15.132;2023-04-25T10:17:28;18.50;63.80
20929;DHT22;21895;47.072;15.132;2023-04-25T10:19:56;18.80;64.70
20929;DHT22;21895;47.072;15.132;2023-04-25T10:22:31;19.00;63.90
20929;DHT22;21895;47.072;15.132;2023-04-25T10:25:01;19.20;65.20
20929;DHT22;21895;47.072;15.132;2023-04-25T10:27:32;19.40;63.60
20929;DHT22;21895;47.072;15.132;2023-04-25T10:30:07;19.40;63.80
20929;DHT22;21895;47.072;15.132;2023-04-25T10:32:44;19.10;63.40
20929;DHT22;21895;47.072;15.132;2023-04-25T10:35:27;19.00;60.90
20929;DHT22;21895;47.072;15.132;2023-04-25T10:38:05;18.50;63.60
20929;DHT22;21895;47.072;15.132;2023-04-25T10:40:36;18.30;62.10
20929;DHT22;21895;47.072;15.132;2023-04-25T10:43:34;18.30;61.50
20929;DHT22;21895;47.072;15.132;2023-04-25T10:46:13;18.40;61.70
20929;DHT22;21895;47.072;15.132;2023-04-25T10:48:51;18.50;61.50
20929;DHT22;21895;47.072;15.132;2023-04-25T10:51:27;18.80;60.70
20929;DHT22;21895;47.072;15.132;2023-04-25T10:54:07;18.80;62.30
20929;DHT22;21895;47.072;15.132;2023-04-25T10:56:39;19.00;62.50
20929;DHT22;21895;47.072;15.132;2023-04-25T10:59:18;18.90;63.60
20929;DHT22;21895;47.072;15.132;2023-04-25T11:01:51;18.80;61.90
20929;DHT22;21895;47.072;15.132;2023-04-25T11:04:31;18.90;59.90
20929;DHT22;21895;47.072;15.132;2023-04-25T11:07:17;19.00;59.00
20929;DHT22;21895;47.072;15.132;2023-04-25T11:09:58;18.90;59.40
20929;DHT22;21895;47.072;15.132;2023-04-25T11:12:30;18.80;59.50
20929;DHT22;21895;47.072;15.132;2023-04-25T11:15:05;18.70;59.70
20929;DHT22;21895;47.072;15.132;2023-04-25T11:17:33;18.80;59.20
20929;DHT22;21895;47.072;15.132;2023-04-25T11:20:01;18.50;60.20
20929;DHT22;21895;47.072;15.132;2023-04-25T11:22:32;18.40;60.50
20929;DHT22;21895;47.072;15.132;2023-04-25T11:25:05;18.50;59.10
20929;DHT22;21895;47.072;15.132;2023-04-25T11:27:32;18.40;58.80
20929;DHT22;21895;47.072;15.132;2023-04-25T11:29:59;18.20;60.00
20929;DHT22;21895;47.072;15.132;2023-04-25T11:32:35;18.20;61.30
20929;DHT22;21895;47.072;15.132;2023-04-25T11:35:02;18.00;68.50
20929;DHT22;21895;47.072;15.132;2023-04-25T11:37:28;17.70;68.00
20929;DHT22;21895;47.072;15.132;2023-04-25T11:39:55;17.30;69.10
20929;DHT22;21895;47.072;15.132;2023-04-25T11:42:22;16.80;70.00
20929;DHT22;21895;47.072;15.132;2023-04-25T11:44:50;16.60;71.10
20929;DHT22;21895;47.072;15.132;2023-04-25T11:47:17;16.40;69.60
20929;DHT22;21895;47.072;15.132;2023-04-25T11:49:43;16.50;69.90
20929;DHT22;21895;47.072;15.132;2023-04-25T11:52:10;16.60;72.90
20929;DHT22;21895;47.072;15.132;2023-04-25T11:54:37;16.70;71.80
20929;DHT22;21895;47.072;15.132;2023-04-25T11:57:04;16.80;71.00
20929;DHT22;21895;47.072;15.132;2023-04-25T11:59:31;16.90;70.80
20929;DHT22;21895;47.072;15.132;2023-04-25T12:01:57;17.10;71.00
20929;DHT22;21895;47.072;15.132;2023-04-25T12:04:24;17.40;71.90
20929;DHT22;21895;47.072;15.132;2023-04-25T12:06:54;17.50;69.90
20929;DHT22;21895;47.072;15.132;2023-04-25T12:09:28;17.60;73.30
20929;DHT22;21895;47.072;15.132;2023-04-25T12:11:57;18.00;73.70
20929;DHT22;21895;47.072;15.132;2023-04-25T12:14:27;18.20;71.60
20929;DHT22;21895;47.072;15.132;2023-04-25T12:16:56;18.50;70.90
20929;DHT22;21895;47.072;15.132;2023-04-25T12:19:24;18.60;69.60
20929;DHT22;21895;47.072;15.132;2023-04-25T12:21:52;18.70;69.10
20929;DHT22;21895;47.072;15.132;2023-04-25T12:24:26;18.70;71.10
20929;DHT22;21895;47.072;15.132;2023-04-25T12:27:03;18.30;74.20
20929;DHT22;21895;47.072;15.132;2023-04-25T12:29:32;18.10;73.30
20929;DHT22;21895;47.072;15.132;2023-04-25T12:32:15;17.80;76.70
20929;DHT22;21895;47.072;15.132;2023-04-25T12:34:42;17.50;76.40
20929;DHT22;21895;47.072;15.132;2023-04-25T12:37:09;17.30;79.20
20929;DHT22;21895;47.072;15.132;2023-04-25T12:39:36;17.00;76.70
20929;DHT22;21895;47.072;15.132;2023-04-25T12:42:03;16.90;76.60
20929;DHT22;21895;47.072;15.132;2023-04-25T12:44:31;16.90;76.90
20929;DHT22;21895;47.072;15.132;2023-04-25T12:46:57;17.10;76.70
20929;DHT22;21895;47.072;15.132;2023-04-25T12:49:25;17.30;76.40
20929;DHT22;21895;47.072;15.132;2023-04-25T12:51:52;17.50;75.70
20929;DHT22;21895;47.072;15.132;2023-04-25T12:54:18;17.50;72.80
20929;DHT22;21895;47.072;15.132;2023-04-25T12:56:45;17.60;72.50
20929;DHT22;21895;47.072;15.132;2023-04-25T12:59:12;17.80;73.00
20929;DHT22;21895;47.072;15.132;2023-04-25T13:01:38;18.00;72.10
20929;DHT22;21895;47.072;15.132;2023-04-25T13:04:05;18.10;72.90
20929;DHT22;21895;47.072;15.132;2023-04-25T13:06:32;18.00;73.20
20929;DHT22;21895;47.072;15.132;2023-04-25T13:08:59;18.10;71.40
20929;DHT22;21895;47.072;15.132;2023-04-25T13:11:26;18.20;69.90
20929;DHT22;21895;47.072;15.132;2023-04-25T13:13:52;18.10;69.00
20929;DHT22;21895;47.072;15.132;2023-04-25T13:16:20;18.10;69.50
20929;DHT22;21895;47.072;15.132;2023-04-25T13:18:47;18.20;67.30
20929;DHT22;21895;47.072;15.132;2023-04-25T13:21:14;18.20;70.40
20929;DHT22;21895;47.072;15.132;2023-04-25T13:23:40;18.20;68.60
20929;DHT22;21895;47.072;15.132;2023-04-25T13:26:08;18.10;69.60
20929;DHT22;21895;47.072;15.132;2023-04-25T13:28:35;18.10;68.70
20929;DHT22;21895;47.072;15.132;2023-04-25T13:31:01;17.90;67.80
20929;DHT22;21895;47.072;15.132;2023-04-25T13:33:28;18.00;70.50
20929;DHT22;21895;47.072;15.132;2023-04-25T13:35:55;18.00;69.70
20929;DHT22;21895;47.072;15.132;2023-04-25T13:38:24;18.10;70.70
20929;DHT22;21895;47.072;15.132;2023-04-25T13:40:51;18.00;68.90
20929;DHT22;21895;47.072;15.132;2023-04-25T13:43:19;17.90;70.50
20929;DHT22;21895;47.072;15.132;2023-04-25T13:45:48;17.90;71.00
20929;DHT22;21895;47.072;15.132;2023-04-25T13:48:15;17.70;70.30
20929;DHT22;21895;47.072;15.132;2023-04-25T13:50:42;17.60;70.00
20929;DHT22;21895;47.072;15.132;2023-04-25T13:53:08;17.60;68.70
20929;DHT22;21895;47.072;15.132;2023-04-25T13:55:35;17.70;68.80
20929;DHT22;21895;47.072;15.132;2023-04-25T13:58:04;17.70;69.50
20929;DHT22;21895;47.072;15.132;2023-04-25T14:00:37;17.60;70.50
20929;DHT22;21895;47.072;15.132;2023-04-25T14:03:04;17.80;69.20
20929;DHT22;21895;47.072;15.132;2023-04-25T14:05:33;17.50;68.20
20929;DHT22;21895;47.072;15.132;2023-04-25T14:08:08;17.70;68.20
20929;DHT22;21895;47.072;15.132;2023-04-25T14:10:35;18.00;67.60
20929;DHT22;21895;47.072;15.132;2023-04-25T14:13:03;18.00;66.90
20929;DHT22;21895;47.072;15.132;2023-04-25T14:15:33;18.20;68.10
20929;DHT22;21895;47.072;15.132;2023-04-25T14:18:01;18.20;72.30
20929;DHT22;21895;47.072;15.132;2023-04-25T14:20:28;18.20;72.70
20929;DHT22;21895;47.072;15.132;2023-04-25T14:22:55;17.90;75.50
20929;DHT22;21895;47.072;15.132;2023-04-25T14:25:24;17.70;74.70
20929;DHT22;21895;47.072;15.132;2023-04-25T14:27:51;17.40;76.20
20929;DHT22;21895;47.072;15.132;2023-04-25T14:30:19;17.40;75.50
20929;DHT22;21895;47.072;15.132;2023-04-25T14:32:47;17.20;77.80
20929;DHT22;21895;47.072;15.132;2023-04-25T14:35:14;17.40;76.30
20929;DHT22;21895;47.072;15.132;2023-04-25T14:37:41;17.40;77.70
20929;DHT22;21895;47.072;15.132;2023-04-25T14:40:08;17.50;76.80
20929;DHT22;21895;47.072;15.132;2023-04-25T14:42:36;17.40;77.40
20929;DHT22;21895;47.072;15.132;2023-04-25T14:45:07;17.30;78.40
20929;DHT22;21895;47.072;15.132;2023-04-25T14:47:37;17.30;80.50
20929;DHT22;21895;47.072;15.132;2023-04-25T14:50:05;17.20;78.30
20929;DHT22;21895;47.072;15.132;2023-04-25T14:52:33;17.20;81.40
20929;DHT22;21895;47.072;15.132;2023-04-25T14:54:59;17.10;81.60
20929;DHT22;21895;47.072;15.132;2023-04-25T14:57:34;16.90;76.60
20929;DHT22;21895;47.072;15.132;2023-04-25T15:00:01;16.60;84.10
20929;DHT22;21895;47.072;15.132;2023-04-25T15:02:28;16.20;81.10
20929;DHT22;21895;47.072;15.132;2023-04-25T15:04:55;16.00;80.90
20929;DHT22;21895;47.072;15.132;2023-04-25T15:07:22;16.00;82.30
20929;DHT22;21895;47.072;15.132;2023-04-25T15:09:49;15.90;83.70
20929;DHT22;21895;47.072;15.132;2023-04-25T15:12:16;15.70;84.00
20929;DHT22;21895;47.072;15.132;2023-04-25T15:14:42;15.60;88.60
20929;DHT22;21895;47.072;15.132;2023-04-25T15:17:09;15.60;90.50
20929;DHT22;21895;47.072;15.132;2023-04-25T15:19:35;15.60;91.10
20929;DHT22;21895;47.072;15.132;2023-04-25T15:22:02;15.80;89.00
20929;DHT22;21895;47.072;15.132;2023-04-25T15:24:29;15.70;90.70
20929;DHT22;21895;47.072;15.132;2023-04-25T15:26:55;15.80;90.70